Arago, OR

12:29 AM PDT on September 01, 2014 (GMT -0700)
Arago | Change Station
CLOSE
Current Station
Personal Weather Station
Location: Myrtle Point, OR
Elevation: 175 ft
Nearby Weather Stations

Elev 175 ft 43.09 °N, 124.20 °W | Updated 4 minutes ago

Mostly Cloudy
Mostly Cloudy
55.8 °F
Feels Like 55.8 °F
N
0.0
Wind Variable Wind from NW
Gusts 0.0 mph

Today
High -- | Low -- °F
--% Chance of Precip.
Yesterday
High -- | Low -- °F
Precip. -- in
6:41 AM 7:51 PM
Waxing Crescent, 38% visible
Pressure 30.08 in
Visibility 10.0 miles
Clouds Overcast 1700 ft
Dew Point 55 °F
Humidity 97%
Rainfall 0.00 in
Snow Depth Not available.
UV 0 out of 12
Pollen 5.30 out of 12
Air Quality Not available.
Flu Activity Not available.
METAR KOTH 010715Z 00000KT 10SM OVC017 16/16 A3008 RMK AO1

More Conditions Fewer Conditions

Pressure 30.08 in
Visibility 10.0 miles
Clouds Overcast 1700 ft
Dew Point 55 °F
Humidity 97%
Rainfall 0.00 in
Snow Depth Not available.
UV 0 out of 12
Pollen 5.30 out of 12
Air Quality Not available.
Flu Activity Not available.
METAR KOTH 010715Z 00000KT 10SM OVC017 16/16 A3008 RMK AO1

More Conditions Fewer Conditions

10-Day Weather Forecast

Almanac

Astronomy

Sep. 01, 2014 Rise Set
Actual Time 6:41 AM PDT 7:51 PM PDT
Civil Twilight 6:11 AM PDT 8:20 PM PDT
Nautical Twilight 5:36 AM PDT 8:55 PM PDT
Astronomical Twilight 4:59 AM PDT 9:32 PM PDT
Moon 1:43 PM PDT 11:46 PM PDT
Length of Visible Light 14h 08m
Length of Day
13h 10m
Tomorrow will be 2m 49s shorter.
Waxing Crescent, 38% of the Moon is Illuminated
Today
Waxing Crescent
Sep 2
First Quarter
Sep 8
Full
Sep 15
Last Quarter
Sep 24
New

Today's Extremes

State Highs State Lows

Community

WunderPhotos

Upload Photos

1,749,154 photos uploaded!

Nearby

Snow Depth

Station Depth Elevation
Bigelow Camp 1 in 5120 ft
Holland Meadows 0 in 4900 ft
Big Red Mountain 0 in 6250 ft
Fish Lake 0 in 4665 ft
Annie Springs 0 in 6020 ft

Earthquake Activity

City Distance Mag. Time & Date
No recent earthquake activity has been reported nearby.
Minimum magnitude displayed is 2.5.

Coastal Water Temperatures

Place Temperature
Port Orford, OR 52.0 °F
Charleston, OR 57.9 °F
South Beach, OR 57.9 °F

Nearby Weather Stations